sensor_id;sensor_type;location;lat;lon;timestamp;temperature;humidity
8067;DHT22;4076;48.076;9.118;2023-04-15T00:01:58;1.50;99.90
8067;DHT22;4076;48.076;9.118;2023-04-15T00:04:26;1.60;99.90
8067;DHT22;4076;48.076;9.118;2023-04-15T00:06:52;1.60;99.90
8067;DHT22;4076;48.076;9.118;2023-04-15T00:09:18;1.60;99.90
8067;DHT22;4076;48.076;9.118;2023-04-15T00:11:44;1.60;99.90
8067;DHT22;4076;48.076;9.118;2023-04-15T00:14:11;1.60;99.90
8067;DHT22;4076;48.076;9.118;2023-04-15T00:16:37;1.50;99.90
8067;DHT22;4076;48.076;9.118;2023-04-15T00:19:03;1.40;99.90
8067;DHT22;4076;48.076;9.118;2023-04-15T00:21:29;1.30;99.90
8067;DHT22;4076;48.076;9.118;2023-04-15T00:23:55;1.20;99.90
8067;DHT22;4076;48.076;9.118;2023-04-15T00:26:21;1.20;99.90
8067;DHT22;4076;48.076;9.118;2023-04-15T00:28:46;1.30;99.90
8067;DHT22;4076;48.076;9.118;2023-04-15T00:31:12;1.30;99.90
8067;DHT22;4076;48.076;9.118;2023-04-15T00:33:38;1.30;99.90
8067;DHT22;4076;48.076;9.118;2023-04-15T00:36:05;1.30;99.90
8067;DHT22;4076;48.076;9.118;2023-04-15T00:38:31;1.30;99.90
8067;DHT22;4076;48.076;9.118;2023-04-15T00:40:57;1.30;99.90
8067;DHT22;4076;48.076;9.118;2023-04-15T00:43:22;1.40;99.90
8067;DHT22;4076;48.076;9.118;2023-04-15T00:45:49;1.40;99.90
8067;DHT22;4076;48.076;9.118;2023-04-15T00:48:16;1.40;99.90
8067;DHT22;4076;48.076;9.118;2023-04-15T00:50:42;1.40;99.90
8067;DHT22;4076;48.076;9.118;2023-04-15T00:53:07;1.40;99.90
8067;DHT22;4076;48.076;9.118;2023-04-15T00:55:33;1.40;99.90
8067;DHT22;4076;48.076;9.118;2023-04-15T00:57:59;1.30;99.90
8067;DHT22;4076;48.076;9.118;2023-04-15T01:00:24;1.20;99.90
8067;DHT22;4076;48.076;9.118;2023-04-15T01:02:51;1.00;99.90
8067;DHT22;4076;48.076;9.118;2023-04-15T01:05:16;0.90;99.90
8067;DHT22;4076;48.076;9.118;2023-04-15T01:07:43;0.90;99.90
8067;DHT22;4076;48.076;9.118;2023-04-15T01:10:08;0.80;99.90
8067;DHT22;4076;48.076;9.118;2023-04-15T01:12:34;0.80;99.90
8067;DHT22;4076;48.076;9.118;2023-04-15T01:15:01;0.70;99.90
8067;DHT22;4076;48.076;9.118;2023-04-15T01:17:26;0.70;99.90
8067;DHT22;4076;48.076;9.118;2023-04-15T01:19:55;0.80;99.90
8067;DHT22;4076;48.076;9.118;2023-04-15T01:22:21;0.90;99.90
8067;DHT22;4076;48.076;9.118;2023-04-15T01:25:05;1.00;99.90
8067;DHT22;4076;48.076;9.118;2023-04-15T01:27:31;1.00;99.90
8067;DHT22;4076;48.076;9.118;2023-04-15T01:29:57;1.00;99.90
8067;DHT22;4076;48.076;9.118;2023-04-15T01:32:23;1.10;99.90
8067;DHT22;4076;48.076;9.118;2023-04-15T01:34:48;1.10;99.90
8067;DHT22;4076;48.076;9.118;2023-04-15T01:37:14;1.20;99.90
8067;DHT22;4076;48.076;9.118;2023-04-15T01:39:40;1.20;99.90
8067;DHT22;4076;48.076;9.118;2023-04-15T01:42:06;1.10;99.90
8067;DHT22;4076;48.076;9.118;2023-04-15T01:44:31;1.00;99.90
8067;DHT22;4076;48.076;9.118;2023-04-15T01:46:57;0.90;99.90
8067;DHT22;4076;48.076;9.118;2023-04-15T01:49:23;0.90;99.90
8067;DHT22;4076;48.076;9.118;2023-04-15T01:51:48;0.90;99.90
8067;DHT22;4076;48.076;9.118;2023-04-15T01:54:14;1.00;99.90
8067;DHT22;4076;48.076;9.118;2023-04-15T01:56:40;1.00;99.90
8067;DHT22;4076;48.076;9.118;2023-04-15T01:59:05;0.90;99.90
8067;DHT22;4076;48.076;9.118;2023-04-15T02:01:31;0.90;99.90
8067;DHT22;4076;48.076;9.118;2023-04-15T02:03:57;0.90;99.90
8067;DHT22;4076;48.076;9.118;2023-04-15T02:06:22;0.90;99.90
8067;DHT22;4076;48.076;9.118;2023-04-15T02:08:48;0.90;99.90
8067;DHT22;4076;48.076;9.118;2023-04-15T02:11:14;1.00;99.90
8067;DHT22;4076;48.076;9.118;2023-04-15T02:13:39;0.90;99.90
8067;DHT22;4076;48.076;9.118;2023-04-15T02:16:15;0.90;99.90
8067;DHT22;4076;48.076;9.118;2023-04-15T02:18:42;0.80;99.90
8067;DHT22;4076;48.076;9.118;2023-04-15T02:21:07;0.80;99.90
8067;DHT22;4076;48.076;9.118;2023-04-15T02:23:33;0.70;99.90
8067;DHT22;4076;48.076;9.118;2023-04-15T02:25:58;0.70;99.90
8067;DHT22;4076;48.076;9.118;2023-04-15T02:28:24;0.80;99.90
8067;DHT22;4076;48.076;9.118;2023-04-15T02:30:51;0.70;99.90
8067;DHT22;4076;48.076;9.118;2023-04-15T02:33:18;0.70;99.90
8067;DHT22;4076;48.076;9.118;2023-04-15T02:35:44;0.60;99.90
8067;DHT22;4076;48.076;9.118;2023-04-15T02:38:10;0.70;99.90
8067;DHT22;4076;48.076;9.118;2023-04-15T02:40:36;0.70;99.90
8067;DHT22;4076;48.076;9.118;2023-04-15T02:43:02;0.70;99.90
8067;DHT22;4076;48.076;9.118;2023-04-15T02:45:27;0.60;99.90
8067;DHT22;4076;48.076;9.118;2023-04-15T02:47:53;0.70;99.90
8067;DHT22;4076;48.076;9.118;2023-04-15T02:50:19;0.60;99.90
8067;DHT22;4076;48.076;9.118;2023-04-15T02:52:45;0.60;99.90
8067;DHT22;4076;48.076;9.118;2023-04-15T02:55:11;0.60;99.90
8067;DHT22;4076;48.076;9.118;2023-04-15T02:57:37;0.60;99.90
8067;DHT22;4076;48.076;9.118;2023-04-15T03:00:04;0.60;99.90
8067;DHT22;4076;48.076;9.118;2023-04-15T03:02:34;0.50;99.90
8067;DHT22;4076;48.076;9.118;2023-04-15T03:05:00;0.30;99.90
8067;DHT22;4076;48.076;9.118;2023-04-15T03:07:26;0.30;99.90
8067;DHT22;4076;48.076;9.118;2023-04-15T03:09:51;0.10;99.90
8067;DHT22;4076;48.076;9.118;2023-04-15T03:12:17;0.10;99.90
8067;DHT22;4076;48.076;9.118;2023-04-15T03:14:42;0.00;99.90
8067;DHT22;4076;48.076;9.118;2023-04-15T03:17:08;-0.10;99.90
8067;DHT22;4076;48.076;9.118;2023-04-15T03:19:33;-0.10;99.90
8067;DHT22;4076;48.076;9.118;2023-04-15T03:21:59;-0.20;99.90
8067;DHT22;4076;48.076;9.118;2023-04-15T03:24:25;-0.20;99.90
8067;DHT22;4076;48.076;9.118;2023-04-15T03:26:51;-0.10;99.90
8067;DHT22;4076;48.076;9.118;2023-04-15T03:29:16;-0.10;99.90
8067;DHT22;4076;48.076;9.118;2023-04-15T03:31:42;-0.10;99.90
8067;DHT22;4076;48.076;9.118;2023-04-15T03:34:08;-0.10;99.90
8067;DHT22;4076;48.076;9.118;2023-04-15T03:36:33;0.00;99.90
8067;DHT22;4076;48.076;9.118;2023-04-15T03:38:59;0.00;99.90
8067;DHT22;4076;48.076;9.118;2023-04-15T03:41:26;-0.10;99.90
8067;DHT22;4076;48.076;9.118;2023-04-15T03:43:52;-0.10;99.90
8067;DHT22;4076;48.076;9.118;2023-04-15T03:46:18;-0.10;99.90
8067;DHT22;4076;48.076;9.118;2023-04-15T03:48:44;0.00;99.90
8067;DHT22;4076;48.076;9.118;2023-04-15T03:51:09;-0.10;99.90
8067;DHT22;4076;48.076;9.118;2023-04-15T03:53:35;0.00;99.90
8067;DHT22;4076;48.076;9.118;2023-04-15T03:56:01;0.00;99.90
8067;DHT22;4076;48.076;9.118;2023-04-15T03:58:26;0.00;99.90
8067;DHT22;4076;48.076;9.118;2023-04-15T04:00:52;0.00;99.90
8067;DHT22;4076;48.076;9.118;2023-04-15T04:03:19;0.10;99.90
8067;DHT22;4076;48.076;9.118;2023-04-15T04:05:45;0.20;99.90
8067;DHT22;4076;48.076;9.118;2023-04-15T04:08:11;0.20;99.90
8067;DHT22;4076;48.076;9.118;2023-04-15T04:10:38;0.10;99.90
8067;DHT22;4076;48.076;9.118;2023-04-15T04:13:04;0.00;99.90
8067;DHT22;4076;48.076;9.118;2023-04-15T04:15:29;0.00;99.90
8067;DHT22;4076;48.076;9.118;2023-04-15T04:17:55;0.00;99.90
8067;DHT22;4076;48.076;9.118;2023-04-15T04:20:21;0.00;99.90
8067;DHT22;4076;48.076;9.118;2023-04-15T04:22:47;0.00;99.90
8067;DHT22;4076;48.076;9.118;2023-04-15T04:25:12;-0.10;99.90
8067;DHT22;4076;48.076;9.118;2023-04-15T04:27:38;-0.10;99.90
8067;DHT22;4076;48.076;9.118;2023-04-15T04:30:05;-0.20;99.90
8067;DHT22;4076;48.076;9.118;2023-04-15T04:32:31;-0.30;99.90
8067;DHT22;4076;48.076;9.118;2023-04-15T04:34:57;-0.30;99.90
8067;DHT22;4076;48.076;9.118;2023-04-15T04:37:22;-0.30;99.90
8067;DHT22;4076;48.076;9.118;2023-04-15T04:39:49;-0.40;99.90
8067;DHT22;4076;48.076;9.118;2023-04-15T04:42:14;-0.30;99.90
8067;DHT22;4076;48.076;9.118;2023-04-15T04:44:40;-0.30;99.90
8067;DHT22;4076;48.076;9.118;2023-04-15T04:47:05;-0.20;99.90
8067;DHT22;4076;48.076;9.118;2023-04-15T04:49:32;-0.20;99.90
8067;DHT22;4076;48.076;9.118;2023-04-15T04:51:58;-0.10;99.90
8067;DHT22;4076;48.076;9.118;2023-04-15T04:54:23;-0.10;99.90
8067;DHT22;4076;48.076;9.118;2023-04-15T04:56:49;-0.10;99.90
8067;DHT22;4076;48.076;9.118;2023-04-15T04:59:18;-0.10;99.90
8067;DHT22;4076;48.076;9.118;2023-04-15T05:01:50;-0.10;99.90
8067;DHT22;4076;48.076;9.118;2023-04-15T05:04:22;-0.10;99.90
8067;DHT22;4076;48.076;9.118;2023-04-15T05:06:54;0.00;99.90
8067;DHT22;4076;48.076;9.118;2023-04-15T05:09:28;0.20;99.90
8067;DHT22;4076;48.076;9.118;2023-04-15T05:12:03;0.40;99.90
8067;DHT22;4076;48.076;9.118;2023-04-15T05:14:29;0.60;99.90
8067;DHT22;4076;48.076;9.118;2023-04-15T05:16:54;0.80;99.90
8067;DHT22;4076;48.076;9.118;2023-04-15T05:19:21;1.00;99.90
8067;DHT22;4076;48.076;9.118;2023-04-15T05:21:46;1.10;99.90
8067;DHT22;4076;48.076;9.118;2023-04-15T05:24:12;1.30;99.90
8067;DHT22;4076;48.076;9.118;2023-04-15T05:26:38;1.50;99.90
8067;DHT22;4076;48.076;9.118;2023-04-15T05:29:04;1.70;99.90
8067;DHT22;4076;48.076;9.118;2023-04-15T05:31:30;1.90;99.90
8067;DHT22;4076;48.076;9.118;2023-04-15T05:33:56;2.10;99.90
8067;DHT22;4076;48.076;9.118;2023-04-15T05:36:22;2.40;99.90
8067;DHT22;4076;48.076;9.118;2023-04-15T05:38:48;2.70;99.90
8067;DHT22;4076;48.076;9.118;2023-04-15T05:41:13;3.00;99.90
8067;DHT22;4076;48.076;9.118;2023-04-15T05:43:40;3.40;99.90
8067;DHT22;4076;48.076;9.118;2023-04-15T05:46:06;3.70;99.90
8067;DHT22;4076;48.076;9.118;2023-04-15T05:48:32;3.90;99.90
8067;DHT22;4076;48.076;9.118;2023-04-15T05:50:59;4.20;99.90
8067;DHT22;4076;48.076;9.118;2023-04-15T05:53:25;4.50;99.90
8067;DHT22;4076;48.076;9.118;2023-04-15T05:55:50;4.70;99.90
8067;DHT22;4076;48.076;9.118;2023-04-15T05:58:16;4.80;99.90
8067;DHT22;4076;48.076;9.118;2023-04-15T06:00:42;4.90;99.90
8067;DHT22;4076;48.076;9.118;2023-04-15T06:03:08;4.90;99.90
8067;DHT22;4076;48.076;9.118;2023-04-15T06:05:33;5.10;99.90
8067;DHT22;4076;48.076;9.118;2023-04-15T06:07:59;5.10;99.90
8067;DHT22;4076;48.076;9.118;2023-04-15T06:10:25;5.20;99.90
8067;DHT22;4076;48.076;9.118;2023-04-15T06:12:52;5.20;99.90
8067;DHT22;4076;48.076;9.118;2023-04-15T06:15:18;5.30;99.90
8067;DHT22;4076;48.076;9.118;2023-04-15T06:17:44;5.40;99.90
8067;DHT22;4076;48.076;9.118;2023-04-15T06:20:10;5.40;99.90
8067;DHT22;4076;48.076;9.118;2023-04-15T06:22:36;5.60;99.90
8067;DHT22;4076;48.076;9.118;2023-04-15T06:25:06;5.70;99.90
8067;DHT22;4076;48.076;9.118;2023-04-15T06:27:33;5.90;99.90
8067;DHT22;4076;48.076;9.118;2023-04-15T06:29:59;6.30;99.90
8067;DHT22;4076;48.076;9.118;2023-04-15T06:32:25;6.70;99.90
8067;DHT22;4076;48.076;9.118;2023-04-15T06:34:51;7.00;99.10
8067;DHT22;4076;48.076;9.118;2023-04-15T06:37:16;7.30;99.90
8067;DHT22;4076;48.076;9.118;2023-04-15T06:39:42;7.70;97.70
8067;DHT22;4076;48.076;9.118;2023-04-15T06:42:10;8.10;96.00
8067;DHT22;4076;48.076;9.118;2023-04-15T06:44:36;8.10;90.10
8067;DHT22;4076;48.076;9.118;2023-04-15T06:47:02;8.20;90.10
8067;DHT22;4076;48.076;9.118;2023-04-15T06:49:28;8.60;89.80
8067;DHT22;4076;48.076;9.118;2023-04-15T06:51:54;9.20;86.30
8067;DHT22;4076;48.076;9.118;2023-04-15T06:54:19;9.80;81.90
8067;DHT22;4076;48.076;9.118;2023-04-15T06:56:45;10.50;73.70
8067;DHT22;4076;48.076;9.118;2023-04-15T06:59:12;11.20;66.90
8067;DHT22;4076;48.076;9.118;2023-04-15T07:01:39;11.40;66.60
8067;DHT22;4076;48.076;9.118;2023-04-15T07:04:05;11.70;59.70
8067;DHT22;4076;48.076;9.118;2023-04-15T07:06:31;11.80;57.90
8067;DHT22;4076;48.076;9.118;2023-04-15T07:08:57;12.10;56.70
8067;DHT22;4076;48.076;9.118;2023-04-15T07:11:24;12.30;55.00
8067;DHT22;4076;48.076;9.118;2023-04-15T07:13:50;12.60;54.20
8067;DHT22;4076;48.076;9.118;2023-04-15T07:16:16;13.30;54.80
8067;DHT22;4076;48.076;9.118;2023-04-15T07:18:41;13.90;52.30
8067;DHT22;4076;48.076;9.118;2023-04-15T07:21:07;14.30;51.50
8067;DHT22;4076;48.076;9.118;2023-04-15T07:23:33;14.20;49.30
8067;DHT22;4076;48.076;9.118;2023-04-15T07:25:59;13.50;48.80
8067;DHT22;4076;48.076;9.118;2023-04-15T07:28:26;12.80;49.70
8067;DHT22;4076;48.076;9.118;2023-04-15T07:30:51;12.60;51.20
8067;DHT22;4076;48.076;9.118;2023-04-15T07:33:17;12.80;51.30
8067;DHT22;4076;48.076;9.118;2023-04-15T07:35:43;13.30;50.80
8067;DHT22;4076;48.076;9.118;2023-04-15T07:38:09;13.60;50.10
8067;DHT22;4076;48.076;9.118;2023-04-15T07:40:38;13.90;49.60
8067;DHT22;4076;48.076;9.118;2023-04-15T07:43:04;13.90;49.60
8067;DHT22;4076;48.076;9.118;2023-04-15T07:45:30;14.30;49.40
8067;DHT22;4076;48.076;9.118;2023-04-15T07:47:56;14.90;49.60
8067;DHT22;4076;48.076;9.118;2023-04-15T07:50:22;15.30;48.40
8067;DHT22;4076;48.076;9.118;2023-04-15T07:52:49;15.40;47.10
8067;DHT22;4076;48.076;9.118;2023-04-15T07:55:16;15.60;47.30
8067;DHT22;4076;48.076;9.118;2023-04-15T07:57:44;15.60;46.90
8067;DHT22;4076;48.076;9.118;2023-04-15T08:00:12;15.70;46.80
8067;DHT22;4076;48.076;9.118;2023-04-15T08:02:37;15.90;47.00
8067;DHT22;4076;48.076;9.118;2023-04-15T08:05:03;15.70;45.80
8067;DHT22;4076;48.076;9.118;2023-04-15T08:07:29;15.80;46.50
8067;DHT22;4076;48.076;9.118;2023-04-15T08:09:55;16.00;46.50
8067;DHT22;4076;48.076;9.118;2023-04-15T08:12:21;16.10;46.10
8067;DHT22;4076;48.076;9.118;2023-04-15T08:14:49;16.40;45.80
8067;DHT22;4076;48.076;9.118;2023-04-15T08:17:15;17.00;44.90
8067;DHT22;4076;48.076;9.118;2023-04-15T08:19:40;17.40;44.80
8067;DHT22;4076;48.076;9.118;2023-04-15T08:22:06;17.90;42.80
8067;DHT22;4076;48.076;9.118;2023-04-15T08:24:32;18.50;43.00
8067;DHT22;4076;48.076;9.118;2023-04-15T08:26:58;20.10;42.40
8067;DHT22;4076;48.076;9.118;2023-04-15T08:29:24;21.20;40.00
8067;DHT22;4076;48.076;9.118;2023-04-15T08:31:50;22.60;39.20
8067;DHT22;4076;48.076;9.118;2023-04-15T08:34:16;23.50;37.30
8067;DHT22;4076;48.076;9.118;2023-04-15T08:41:40;27.60;43.50
8067;DHT22;4076;48.076;9.118;2023-04-15T08:44:11;28.80;36.30
8067;DHT22;4076;48.076;9.118;2023-04-15T08:46:37;29.80;33.40
8067;DHT22;4076;48.076;9.118;2023-04-15T08:49:04;29.50;30.20
8067;DHT22;4076;48.076;9.118;2023-04-15T08:51:30;29.40;29.90
8067;DHT22;4076;48.076;9.118;2023-04-15T08:53:56;29.00;29.30
8067;DHT22;4076;48.076;9.118;2023-04-15T08:56:24;27.80;29.00
8067;DHT22;4076;48.076;9.118;2023-04-15T08:58:53;26.60;30.00
8067;DHT22;4076;48.076;9.118;2023-04-15T09:01:19;25.80;30.20
8067;DHT22;4076;48.076;9.118;2023-04-15T09:03:47;25.00;32.00
8067;DHT22;4076;48.076;9.118;2023-04-15T09:06:16;24.30;32.90
8067;DHT22;4076;48.076;9.118;2023-04-15T09:08:41;23.70;30.70
8067;DHT22;4076;48.076;9.118;2023-04-15T09:11:07;22.70;31.20
8067;DHT22;4076;48.076;9.118;2023-04-15T09:13:33;22.10;32.30
8067;DHT22;4076;48.076;9.118;2023-04-15T09:16:01;21.60;33.10
8067;DHT22;4076;48.076;9.118;2023-04-15T09:18:32;21.30;32.70
8067;DHT22;4076;48.076;9.118;2023-04-15T09:21:09;21.10;32.60
8067;DHT22;4076;48.076;9.118;2023-04-15T09:23:36;21.00;32.20
8067;DHT22;4076;48.076;9.118;2023-04-15T09:26:03;21.00;32.50
8067;DHT22;4076;48.076;9.118;2023-04-15T09:28:30;21.20;31.70
8067;DHT22;4076;48.076;9.118;2023-04-15T09:31:00;21.40;30.80
8067;DHT22;4076;48.076;9.118;2023-04-15T09:33:27;21.50;30.50
8067;DHT22;4076;48.076;9.118;2023-04-15T09:36:02;21.50;30.50
8067;DHT22;4076;48.076;9.118;2023-04-15T09:38:29;21.40;31.10
8067;DHT22;4076;48.076;9.118;2023-04-15T09:40:55;21.30;30.80
8067;DHT22;4076;48.076;9.118;2023-04-15T09:43:21;21.00;31.40
8067;DHT22;4076;48.076;9.118;2023-04-15T09:45:52;20.70;30.00
8067;DHT22;4076;48.076;9.118;2023-04-15T09:48:24;20.40;30.40
8067;DHT22;4076;48.076;9.118;2023-04-15T09:50:59;19.80;30.50
8067;DHT22;4076;48.076;9.118;2023-04-15T09:53:25;19.20;30.70
8067;DHT22;4076;48.076;9.118;2023-04-15T09:55:53;18.80;29.90
8067;DHT22;4076;48.076;9.118;2023-04-15T09:58:20;18.30;30.10
8067;DHT22;4076;48.076;9.118;2023-04-15T10:00:47;18.00;30.30
8067;DHT22;4076;48.076;9.118;2023-04-15T10:03:22;17.90;30.30
8067;DHT22;4076;48.076;9.118;2023-04-15T10:05:51;17.70;30.90
8067;DHT22;4076;48.076;9.118;2023-04-15T10:08:18;17.60;31.10
8067;DHT22;4076;48.076;9.118;2023-04-15T10:10:45;17.80;31.50
8067;DHT22;4076;48.076;9.118;2023-04-15T10:13:17;18.20;31.60
8067;DHT22;4076;48.076;9.118;2023-04-15T10:15:44;18.70;31.30
8067;DHT22;4076;48.076;9.118;2023-04-15T10:18:15;19.00;30.80
8067;DHT22;4076;48.076;9.118;2023-04-15T10:20:42;18.70;30.90
8067;DHT22;4076;48.076;9.118;2023-04-15T10:23:08;18.40;30.70
8067;DHT22;4076;48.076;9.118;2023-04-15T10:25:35;18.10;30.40
8067;DHT22;4076;48.076;9.118;2023-04-15T10:28:01;17.80;30.70
8067;DHT22;4076;48.076;9.118;2023-04-15T10:30:27;17.50;31.00
8067;DHT22;4076;48.076;9.118;2023-04-15T10:32:54;17.10;30.70
8067;DHT22;4076;48.076;9.118;2023-04-15T10:35:21;16.80;31.00
8067;DHT22;4076;48.076;9.118;2023-04-15T10:37:47;16.50;31.60
8067;DHT22;4076;48.076;9.118;2023-04-15T10:42:50;16.20;32.60
8067;DHT22;4076;48.076;9.118;2023-04-15T10:45:17;16.00;33.00
8067;DHT22;4076;48.076;9.118;2023-04-15T10:47:43;15.70;32.70
8067;DHT22;4076;48.076;9.118;2023-04-15T10:50:09;15.30;33.20
8067;DHT22;4076;48.076;9.118;2023-04-15T10:52:39;14.90;33.00
8067;DHT22;4076;48.076;9.118;2023-04-15T10:55:13;14.60;33.40
8067;DHT22;4076;48.076;9.118;2023-04-15T10:57:43;14.40;34.00
8067;DHT22;4076;48.076;9.118;2023-04-15T11:00:15;14.20;34.80
8067;DHT22;4076;48.076;9.118;2023-04-15T11:08:10;13.90;35.20
8067;DHT22;4076;48.076;9.118;2023-04-15T11:13:14;13.80;36.30
8067;DHT22;4076;48.076;9.118;2023-04-15T11:15:43;13.90;35.90
8067;DHT22;4076;48.076;9.118;2023-04-15T11:18:10;13.90;35.90
8067;DHT22;4076;48.076;9.118;2023-04-15T11:20:37;13.80;35.90
8067;DHT22;4076;48.076;9.118;2023-04-15T11:23:03;13.70;36.80
8067;DHT22;4076;48.076;9.118;2023-04-15T11:25:34;13.90;36.40
8067;DHT22;4076;48.076;9.118;2023-04-15T11:28:00;14.00;36.70
8067;DHT22;4076;48.076;9.118;2023-04-15T11:30:29;14.20;37.40
8067;DHT22;4076;48.076;9.118;2023-04-15T11:33:00;14.30;36.90
8067;DHT22;4076;48.076;9.118;2023-04-15T11:35:26;14.40;37.20
8067;DHT22;4076;48.076;9.118;2023-04-15T11:37:53;14.40;37.30
8067;DHT22;4076;48.076;9.118;2023-04-15T11:40:27;14.50;37.20
8067;DHT22;4076;48.076;9.118;2023-04-15T11:43:21;14.80;36.90
8067;DHT22;4076;48.076;9.118;2023-04-15T11:45:59;15.10;36.80
8067;DHT22;4076;48.076;9.118;2023-04-15T11:48:35;15.30;36.50
8067;DHT22;4076;48.076;9.118;2023-04-15T11:51:04;15.40;36.90
8067;DHT22;4076;48.076;9.118;2023-04-15T11:53:42;15.50;37.50
8067;DHT22;4076;48.076;9.118;2023-04-15T11:56:10;15.60;38.90
8067;DHT22;4076;48.076;9.118;2023-04-15T11:58:37;15.80;37.10
8067;DHT22;4076;48.076;9.118;2023-04-15T12:01:04;15.70;37.70
8067;DHT22;4076;48.076;9.118;2023-04-15T12:03:39;15.70;37.50
8067;DHT22;4076;48.076;9.118;2023-04-15T12:06:21;15.60;38.40
8067;DHT22;4076;48.076;9.118;2023-04-15T12:09:17;15.50;38.70
8067;DHT22;4076;48.076;9.118;2023-04-15T12:11:50;15.50;39.00
8067;DHT22;4076;48.076;9.118;2023-04-15T12:14:26;15.60;39.10
8067;DHT22;4076;48.076;9.118;2023-04-15T12:17:03;15.80;38.00
8067;DHT22;4076;48.076;9.118;2023-04-15T12:19:37;16.00;37.10
8067;DHT22;4076;48.076;9.118;2023-04-15T12:22:10;16.20;36.80
8067;DHT22;4076;48.076;9.118;2023-04-15T12:24:36;16.40;34.70
8067;DHT22;4076;48.076;9.118;2023-04-15T12:27:07;16.50;34.90
8067;DHT22;4076;48.076;9.118;2023-04-15T12:29:34;16.50;32.50
8067;DHT22;4076;48.076;9.118;2023-04-15T12:32:08;16.50;32.90
8067;DHT22;4076;48.076;9.118;2023-04-15T12:34:36;16.40;32.40
8067;DHT22;4076;48.076;9.118;2023-04-15T12:37:03;16.50;32.50
8067;DHT22;4076;48.076;9.118;2023-04-15T12:39:31;16.40;31.30
8067;DHT22;4076;48.076;9.118;2023-04-15T12:41:59;16.40;31.60
8067;DHT22;4076;48.076;9.118;2023-04-15T12:44:25;16.20;31.70
8067;DHT22;4076;48.076;9.118;2023-04-15T12:46:51;16.10;31.20
8067;DHT22;4076;48.076;9.118;2023-04-15T12:49:20;15.90;32.10
8067;DHT22;4076;48.076;9.118;2023-04-15T12:51:48;15.90;32.10
8067;DHT22;4076;48.076;9.118;2023-04-15T12:54:17;15.90;31.80
8067;DHT22;4076;48.076;9.118;2023-04-15T12:56:44;15.90;31.10
8067;DHT22;4076;48.076;9.118;2023-04-15T12:59:10;15.80;29.00
8067;DHT22;4076;48.076;9.118;2023-04-15T13:01:37;15.70;29.90
8067;DHT22;4076;48.076;9.118;2023-04-15T13:04:03;15.70;29.90
8067;DHT22;4076;48.076;9.118;2023-04-15T13:06:28;15.80;30.20
8067;DHT22;4076;48.076;9.118;2023-04-15T13:08:54;16.00;30.80
8067;DHT22;4076;48.076;9.118;2023-04-15T13:11:21;16.20;30.80
8067;DHT22;4076;48.076;9.118;2023-04-15T13:13:47;16.40;30.20
8067;DHT22;4076;48.076;9.118;2023-04-15T13:16:13;16.50;29.20
8067;DHT22;4076;48.076;9.118;2023-04-15T13:18:39;16.50;29.00
8067;DHT22;4076;48.076;9.118;2023-04-15T13:21:06;16.40;28.80
8067;DHT22;4076;48.076;9.118;2023-04-15T13:23:33;16.20;30.00
8067;DHT22;4076;48.076;9.118;2023-04-15T13:26:00;16.10;30.70
8067;DHT22;4076;48.076;9.118;2023-04-15T13:28:28;15.80;30.50
8067;DHT22;4076;48.076;9.118;2023-04-15T13:30:54;15.80;30.90
8067;DHT22;4076;48.076;9.118;2023-04-15T13:33:20;15.80;32.20
8067;DHT22;4076;48.076;9.118;2023-04-15T13:35:45;15.90;33.50
8067;DHT22;4076;48.076;9.118;2023-04-15T13:38:11;16.00;32.00
8067;DHT22;4076;48.076;9.118;2023-04-15T13:40:37;15.80;32.40
8067;DHT22;4076;48.076;9.118;2023-04-15T13:43:02;15.70;33.70
8067;DHT22;4076;48.076;9.118;2023-04-15T13:45:29;15.40;34.00
8067;DHT22;4076;48.076;9.118;2023-04-15T13:47:55;15.40;34.00
8067;DHT22;4076;48.076;9.118;2023-04-15T13:50:21;15.40;35.10
8067;DHT22;4076;48.076;9.118;2023-04-15T13:52:47;15.50;34.40
8067;DHT22;4076;48.076;9.118;2023-04-15T13:55:13;15.50;34.10
8067;DHT22;4076;48.076;9.118;2023-04-15T13:57:38;15.50;33.90
8067;DHT22;4076;48.076;9.118;2023-04-15T14:00:05;15.60;34.20
8067;DHT22;4076;48.076;9.118;2023-04-15T14:02:31;15.70;34.60
8067;DHT22;4076;48.076;9.118;2023-04-15T14:04:56;15.80;34.10
8067;DHT22;4076;48.076;9.118;2023-04-15T14:07:22;15.70;34.40
8067;DHT22;4076;48.076;9.118;2023-04-15T14:09:48;15.70;34.50
8067;DHT22;4076;48.076;9.118;2023-04-15T14:12:14;15.60;34.30
8067;DHT22;4076;48.076;9.118;2023-04-15T14:14:40;15.60;34.00
8067;DHT22;4076;48.076;9.118;2023-04-15T14:17:06;15.50;34.00
8067;DHT22;4076;48.076;9.118;2023-04-15T14:19:33;15.50;34.40
8067;DHT22;4076;48.076;9.118;2023-04-15T14:21:59;15.50;34.50
8067;DHT22;4076;48.076;9.118;2023-04-15T14:24:25;15.50;35.10
8067;DHT22;4076;48.076;9.118;2023-04-15T14:26:52;15.40;35.10
8067;DHT22;4076;48.076;9.118;2023-04-15T14:29:17;15.30;34.40
8067;DHT22;4076;48.076;9.118;2023-04-15T14:31:43;15.30;34.90
8067;DHT22;4076;48.076;9.118;2023-04-15T14:34:10;15.10;34.60
8067;DHT22;4076;48.076;9.118;2023-04-15T14:36:35;15.00;34.00
8067;DHT22;4076;48.076;9.118;2023-04-15T14:39:02;14.80;34.30
8067;DHT22;4076;48.076;9.118;2023-04-15T14:41:28;14.70;34.20
8067;DHT22;4076;48.076;9.118;2023-04-15T14:43:54;14.50;34.20
8067;DHT22;4076;48.076;9.118;2023-04-15T14:46:21;14.30;34.70
8067;DHT22;4076;48.076;9.118;2023-04-15T14:48:47;14.20;35.10
8067;DHT22;4076;48.076;9.118;2023-04-15T14:51:12;14.00;35.60
8067;DHT22;4076;48.076;9.118;2023-04-15T14:53:38;13.90;35.80
8067;DHT22;4076;48.076;9.118;2023-04-15T14:56:04;13.90;35.90
8067;DHT22;4076;48.076;9.118;2023-04-15T14:58:29;13.90;36.50
8067;DHT22;4076;48.076;9.118;2023-04-15T15:00:55;14.00;36.40
8067;DHT22;4076;48.076;9.118;2023-04-15T15:03:21;14.10;35.80
8067;DHT22;4076;48.076;9.118;2023-04-15T15:05:47;14.10;36.30
8067;DHT22;4076;48.076;9.118;2023-04-15T15:08:13;14.00;35.90
8067;DHT22;4076;48.076;9.118;2023-04-15T15:10:39;14.00;36.00
8067;DHT22;4076;48.076;9.118;2023-04-15T15:13:07;13.90;36.50
8067;DHT22;4076;48.076;9.118;2023-04-15T15:15:35;13.90;36.40
8067;DHT22;4076;48.076;9.118;2023-04-15T15:18:01;14.00;36.40
8067;DHT22;4076;48.076;9.118;2023-04-15T15:20:27;13.90;36.00
8067;DHT22;4076;48.076;9.118;2023-04-15T15:22:53;13.90;37.20
8067;DHT22;4076;48.076;9.118;2023-04-15T15:25:19;13.60;39.70
8067;DHT22;4076;48.076;9.118;2023-04-15T15:27:44;13.30;40.00
8067;DHT22;4076;48.076;9.118;2023-04-15T15:30:11;12.90;41.80
8067;DHT22;4076;48.076;9.118;2023-04-15T15:32:40;12.50;42.40
8067;DHT22;4076;48.076;9.118;2023-04-15T15:35:06;12.40;43.00
8067;DHT22;4076;48.076;9.118;2023-04-15T15:37:33;12.10;44.00
8067;DHT22;4076;48.076;9.118;2023-04-15T15:39:59;11.90;43.90
8067;DHT22;4076;48.076;9.118;2023-04-15T15:42:25;11.70;44.20
8067;DHT22;4076;48.076;9.118;2023-04-15T15:44:51;11.50;44.70
8067;DHT22;4076;48.076;9.118;2023-04-15T15:47:18;11.40;45.50
8067;DHT22;4076;48.076;9.118;2023-04-15T15:49:44;11.30;46.00
8067;DHT22;4076;48.076;9.118;2023-04-15T15:52:10;11.30;45.90
8067;DHT22;4076;48.076;9.118;2023-04-15T15:54:36;11.20;46.10
8067;DHT22;4076;48.076;9.118;2023-04-15T15:57:02;11.20;46.50
8067;DHT22;4076;48.076;9.118;2023-04-15T15:59:28;11.20;46.30
8067;DHT22;4076;48.076;9.118;2023-04-15T16:01:54;11.20;46.10
8067;DHT22;4076;48.076;9.118;2023-04-15T16:04:20;11.20;46.10
8067;DHT22;4076;48.076;9.118;2023-04-15T16:06:46;11.20;45.80
8067;DHT22;4076;48.076;9.118;2023-04-15T16:09:12;11.10;46.40
8067;DHT22;4076;48.076;9.118;2023-04-15T16:11:38;11.20;45.90
8067;DHT22;4076;48.076;9.118;2023-04-15T16:14:04;11.10;46.30
8067;DHT22;4076;48.076;9.118;2023-04-15T16:16:29;11.00;45.90
8067;DHT22;4076;48.076;9.118;2023-04-15T16:18:58;11.00;46.00
8067;DHT22;4076;48.076;9.118;2023-04-15T16:21:24;11.00;46.80